sensor_id;sensor_type;location;lat;lon;timestamp;P1;durP1;ratioP1;P2;durP2;ratioP2
42098;SDS011;27758;55.900;8.516;2023-06-10T00:00:56;5.47;;;2.92;;
42098;SDS011;27758;55.900;8.516;2023-06-10T00:03:22;7.05;;;2.42;;
42098;SDS011;27758;55.900;8.516;2023-06-10T00:05:49;7.65;;;2.83;;
42098;SDS011;27758;55.900;8.516;2023-06-10T00:08:14;4.55;;;2.30;;
42098;SDS011;27758;55.900;8.516;2023-06-10T00:10:44;5.35;;;2.35;;
42098;SDS011;27758;55.900;8.516;2023-06-10T00:13:10;5.90;;;2.20;;
42098;SDS011;27758;55.900;8.516;2023-06-10T00:15:36;8.45;;;2.20;;
42098;SDS011;27758;55.900;8.516;2023-06-10T00:18:03;5.38;;;2.28;;
42098;SDS011;27758;55.900;8.516;2023-06-10T00:20:29;6.75;;;2.30;;
42098;SDS011;27758;55.900;8.516;2023-06-10T00:22:56;5.60;;;2.38;;
42098;SDS011;27758;55.900;8.516;2023-06-10T00:25:24;3.42;;;2.00;;
42098;SDS011;27758;55.900;8.516;2023-06-10T00:27:51;5.43;;;2.33;;
42098;SDS011;27758;55.900;8.516;2023-06-10T00:30:16;5.15;;;2.50;;
42098;SDS011;27758;55.900;8.516;2023-06-10T00:32:42;6.43;;;2.90;;
42098;SDS011;27758;55.900;8.516;2023-06-10T00:35:08;6.13;;;2.63;;
42098;SDS011;27758;55.900;8.516;2023-06-10T00:37:34;7.15;;;2.67;;
42098;SDS011;27758;55.900;8.516;2023-06-10T00:40:02;6.28;;;2.60;;
42098;SDS011;27758;55.900;8.516;2023-06-10T00:42:28;7.60;;;2.90;;
42098;SDS011;27758;55.900;8.516;2023-06-10T00:44:54;4.90;;;2.40;;
42098;SDS011;27758;55.900;8.516;2023-06-10T00:47:20;4.78;;;2.17;;
42098;SDS011;27758;55.900;8.516;2023-06-10T00:49:46;4.82;;;2.63;;
42098;SDS011;27758;55.900;8.516;2023-06-10T00:52:15;8.03;;;3.27;;
42098;SDS011;27758;55.900;8.516;2023-06-10T00:54:42;5.80;;;2.50;;
42098;SDS011;27758;55.900;8.516;2023-06-10T00:57:08;7.53;;;2.25;;
42098;SDS011;27758;55.900;8.516;2023-06-10T00:59:34;5.75;;;2.53;;
42098;SDS011;27758;55.900;8.516;2023-06-10T01:02:01;5.03;;;3.05;;
42098;SDS011;27758;55.900;8.516;2023-06-10T01:04:27;6.25;;;2.85;;
42098;SDS011;27758;55.900;8.516;2023-06-10T01:09:53;5.07;;;2.60;;
42098;SDS011;27758;55.900;8.516;2023-06-10T01:14:56;9.70;;;3.05;;
42098;SDS011;27758;55.900;8.516;2023-06-10T01:17:23;5.07;;;2.58;;
42098;SDS011;27758;55.900;8.516;2023-06-10T01:19:55;6.43;;;2.72;;
42098;SDS011;27758;55.900;8.516;2023-06-10T01:22:27;5.70;;;2.47;;
42098;SDS011;27758;55.900;8.516;2023-06-10T01:24:54;8.02;;;2.53;;
42098;SDS011;27758;55.900;8.516;2023-06-10T01:29:50;7.57;;;2.70;;
42098;SDS011;27758;55.900;8.516;2023-06-10T01:32:29;6.63;;;2.60;;
42098;SDS011;27758;55.900;8.516;2023-06-10T01:34:59;5.38;;;2.28;;
42098;SDS011;27758;55.900;8.516;2023-06-10T01:37:28;4.10;;;2.03;;
42098;SDS011;27758;55.900;8.516;2023-06-10T01:39:57;6.50;;;2.40;;
42098;SDS011;27758;55.900;8.516;2023-06-10T01:42:24;4.75;;;2.15;;
42098;SDS011;27758;55.900;8.516;2023-06-10T01:44:51;5.18;;;2.90;;
42098;SDS011;27758;55.900;8.516;2023-06-10T01:47:17;5.82;;;2.45;;
42098;SDS011;27758;55.900;8.516;2023-06-10T01:49:42;3.95;;;2.17;;
42098;SDS011;27758;55.900;8.516;2023-06-10T01:52:08;5.30;;;2.38;;
42098;SDS011;27758;55.900;8.516;2023-06-10T01:54:34;4.60;;;2.22;;
42098;SDS011;27758;55.900;8.516;2023-06-10T01:57:01;6.82;;;2.20;;
42098;SDS011;27758;55.900;8.516;2023-06-10T01:59:27;4.97;;;2.28;;
42098;SDS011;27758;55.900;8.516;2023-06-10T02:01:52;3.72;;;2.10;;
42098;SDS011;27758;55.900;8.516;2023-06-10T02:04:18;2.92;;;1.73;;
42098;SDS011;27758;55.900;8.516;2023-06-10T02:06:44;3.55;;;2.10;;
42098;SDS011;27758;55.900;8.516;2023-06-10T02:09:10;3.28;;;1.92;;
42098;SDS011;27758;55.900;8.516;2023-06-10T02:11:36;4.53;;;1.95;;
42098;SDS011;27758;55.900;8.516;2023-06-10T02:14:02;4.15;;;2.08;;
42098;SDS011;27758;55.900;8.516;2023-06-10T02:16:31;3.03;;;1.70;;
42098;SDS011;27758;55.900;8.516;2023-06-10T02:18:57;3.30;;;1.90;;
42098;SDS011;27758;55.900;8.516;2023-06-10T02:21:23;3.22;;;2.13;;
42098;SDS011;27758;55.900;8.516;2023-06-10T02:23:49;6.85;;;2.10;;
42098;SDS011;27758;55.900;8.516;2023-06-10T02:26:15;2.92;;;1.75;;
42098;SDS011;27758;55.900;8.516;2023-06-10T02:28:43;4.32;;;2.05;;
42098;SDS011;27758;55.900;8.516;2023-06-10T02:31:09;6.00;;;1.90;;
42098;SDS011;27758;55.900;8.516;2023-06-10T02:33:35;2.88;;;1.70;;
42098;SDS011;27758;55.900;8.516;2023-06-10T02:36:05;3.38;;;1.95;;
42098;SDS011;27758;55.900;8.516;2023-06-10T02:38:31;3.40;;;1.98;;
42098;SDS011;27758;55.900;8.516;2023-06-10T02:40:57;4.35;;;1.92;;
42098;SDS011;27758;55.900;8.516;2023-06-10T02:43:22;3.08;;;1.77;;
42098;SDS011;27758;55.900;8.516;2023-06-10T02:45:48;2.58;;;1.55;;
42098;SDS011;27758;55.900;8.516;2023-06-10T02:48:14;2.30;;;1.40;;
42098;SDS011;27758;55.900;8.516;2023-06-10T02:50:45;3.50;;;1.98;;
42098;SDS011;27758;55.900;8.516;2023-06-10T02:53:11;3.05;;;1.80;;
42098;SDS011;27758;55.900;8.516;2023-06-10T02:55:37;2.97;;;1.60;;
42098;SDS011;27758;55.900;8.516;2023-06-10T02:58:04;2.97;;;1.50;;
42098;SDS011;27758;55.900;8.516;2023-06-10T03:00:30;1.45;;;1.30;;
42098;SDS011;27758;55.900;8.516;2023-06-10T03:02:56;4.03;;;2.10;;
42098;SDS011;27758;55.900;8.516;2023-06-10T03:05:22;4.25;;;1.98;;
42098;SDS011;27758;55.900;8.516;2023-06-10T03:07:48;4.07;;;2.15;;
42098;SDS011;27758;55.900;8.516;2023-06-10T03:10:14;5.68;;;1.73;;
42098;SDS011;27758;55.900;8.516;2023-06-10T03:12:40;4.40;;;1.77;;
42098;SDS011;27758;55.900;8.516;2023-06-10T03:15:06;3.95;;;1.70;;
42098;SDS011;27758;55.900;8.516;2023-06-10T03:17:32;4.50;;;2.20;;
42098;SDS011;27758;55.900;8.516;2023-06-10T03:19:57;3.17;;;1.77;;
42098;SDS011;27758;55.900;8.516;2023-06-10T03:22:23;4.00;;;2.08;;
42098;SDS011;27758;55.900;8.516;2023-06-10T03:24:49;5.75;;;1.98;;
42098;SDS011;27758;55.900;8.516;2023-06-10T03:27:15;3.35;;;1.95;;
42098;SDS011;27758;55.900;8.516;2023-06-10T03:29:41;5.13;;;1.65;;
42098;SDS011;27758;55.900;8.516;2023-06-10T03:32:07;3.42;;;2.03;;
42098;SDS011;27758;55.900;8.516;2023-06-10T03:34:33;4.13;;;1.90;;
42098;SDS011;27758;55.900;8.516;2023-06-10T03:36:59;6.63;;;2.55;;
42098;SDS011;27758;55.900;8.516;2023-06-10T03:39:25;6.97;;;2.17;;
42098;SDS011;27758;55.900;8.516;2023-06-10T03:41:54;4.03;;;1.42;;
42098;SDS011;27758;55.900;8.516;2023-06-10T03:44:20;4.85;;;1.90;;
42098;SDS011;27758;55.900;8.516;2023-06-10T03:46:46;6.57;;;2.05;;
42098;SDS011;27758;55.900;8.516;2023-06-10T03:49:12;3.47;;;1.67;;
42098;SDS011;27758;55.900;8.516;2023-06-10T03:51:40;4.68;;;1.75;;
42098;SDS011;27758;55.900;8.516;2023-06-10T03:54:05;4.68;;;2.10;;
42098;SDS011;27758;55.900;8.516;2023-06-10T03:56:31;3.47;;;2.03;;
42098;SDS011;27758;55.900;8.516;2023-06-10T03:58:57;3.13;;;1.80;;
42098;SDS011;27758;55.900;8.516;2023-06-10T04:01:24;5.28;;;2.35;;
42098;SDS011;27758;55.900;8.516;2023-06-10T04:03:49;5.65;;;1.77;;
42098;SDS011;27758;55.900;8.516;2023-06-10T04:06:16;4.72;;;2.10;;
42098;SDS011;27758;55.900;8.516;2023-06-10T04:08:42;2.97;;;1.77;;
42098;SDS011;27758;55.900;8.516;2023-06-10T04:11:08;3.42;;;2.05;;
42098;SDS011;27758;55.900;8.516;2023-06-10T04:13:34;5.72;;;2.28;;
42098;SDS011;27758;55.900;8.516;2023-06-10T04:16:00;4.00;;;1.95;;
42098;SDS011;27758;55.900;8.516;2023-06-10T04:18:25;4.25;;;1.98;;
42098;SDS011;27758;55.900;8.516;2023-06-10T04:20:51;3.17;;;1.80;;
42098;SDS011;27758;55.900;8.516;2023-06-10T04:23:17;3.92;;;1.80;;
42098;SDS011;27758;55.900;8.516;2023-06-10T04:25:43;6.05;;;2.13;;
42098;SDS011;27758;55.900;8.516;2023-06-10T04:28:10;3.40;;;1.90;;
42098;SDS011;27758;55.900;8.516;2023-06-10T04:30:36;5.30;;;2.25;;
42098;SDS011;27758;55.900;8.516;2023-06-10T04:33:01;4.35;;;2.20;;
42098;SDS011;27758;55.900;8.516;2023-06-10T04:35:27;5.07;;;2.13;;
42098;SDS011;27758;55.900;8.516;2023-06-10T04:37:53;3.55;;;1.90;;
42098;SDS011;27758;55.900;8.516;2023-06-10T04:40:19;4.38;;;1.88;;
42098;SDS011;27758;55.900;8.516;2023-06-10T04:42:45;7.88;;;2.22;;
42098;SDS011;27758;55.900;8.516;2023-06-10T04:45:10;4.35;;;2.42;;
42098;SDS011;27758;55.900;8.516;2023-06-10T04:47:36;5.00;;;2.72;;
42098;SDS011;27758;55.900;8.516;2023-06-10T04:50:02;3.50;;;2.08;;
42098;SDS011;27758;55.900;8.516;2023-06-10T04:52:29;3.95;;;2.17;;
42098;SDS011;27758;55.900;8.516;2023-06-10T04:54:57;5.45;;;2.20;;
42098;SDS011;27758;55.900;8.516;2023-06-10T04:57:23;3.35;;;1.98;;
42098;SDS011;27758;55.900;8.516;2023-06-10T04:59:49;3.55;;;2.00;;
42098;SDS011;27758;55.900;8.516;2023-06-10T05:02:14;4.60;;;2.20;;
42098;SDS011;27758;55.900;8.516;2023-06-10T05:04:40;4.15;;;2.05;;
42098;SDS011;27758;55.900;8.516;2023-06-10T05:07:06;2.85;;;1.98;;
42098;SDS011;27758;55.900;8.516;2023-06-10T05:09:32;5.47;;;2.55;;
42098;SDS011;27758;55.900;8.516;2023-06-10T05:11:58;4.18;;;1.90;;
42098;SDS011;27758;55.900;8.516;2023-06-10T05:14:23;4.63;;;2.38;;
42098;SDS011;27758;55.900;8.516;2023-06-10T05:16:49;6.55;;;2.13;;
42098;SDS011;27758;55.900;8.516;2023-06-10T05:19:15;4.45;;;2.20;;
42098;SDS011;27758;55.900;8.516;2023-06-10T05:21:44;5.90;;;2.40;;
42098;SDS011;27758;55.900;8.516;2023-06-10T05:24:10;5.05;;;2.10;;
42098;SDS011;27758;55.900;8.516;2023-06-10T05:26:39;4.03;;;2.08;;
42098;SDS011;27758;55.900;8.516;2023-06-10T05:29:06;4.43;;;2.28;;
42098;SDS011;27758;55.900;8.516;2023-06-10T05:31:33;4.65;;;2.30;;
42098;SDS011;27758;55.900;8.516;2023-06-10T05:33:58;5.40;;;2.10;;
42098;SDS011;27758;55.900;8.516;2023-06-10T05:36:24;7.13;;;2.22;;
42098;SDS011;27758;55.900;8.516;2023-06-10T05:38:52;3.83;;;1.90;;
42098;SDS011;27758;55.900;8.516;2023-06-10T05:41:18;4.78;;;2.15;;
42098;SDS011;27758;55.900;8.516;2023-06-10T05:43:44;5.50;;;2.03;;
42098;SDS011;27758;55.900;8.516;2023-06-10T05:46:09;5.25;;;2.30;;
42098;SDS011;27758;55.900;8.516;2023-06-10T05:48:35;3.72;;;1.98;;
42098;SDS011;27758;55.900;8.516;2023-06-10T05:51:01;4.40;;;1.65;;
42098;SDS011;27758;55.900;8.516;2023-06-10T05:53:26;5.20;;;2.25;;
42098;SDS011;27758;55.900;8.516;2023-06-10T05:55:53;4.97;;;2.22;;
42098;SDS011;27758;55.900;8.516;2023-06-10T05:58:22;5.00;;;1.95;;
42098;SDS011;27758;55.900;8.516;2023-06-10T06:00:48;7.38;;;2.17;;
42098;SDS011;27758;55.900;8.516;2023-06-10T06:03:14;10.30;;;2.20;;
42098;SDS011;27758;55.900;8.516;2023-06-10T06:05:40;6.40;;;2.00;;
42098;SDS011;27758;55.900;8.516;2023-06-10T06:08:05;3.20;;;1.67;;
42098;SDS011;27758;55.900;8.516;2023-06-10T06:10:32;8.02;;;1.60;;
42098;SDS011;27758;55.900;8.516;2023-06-10T06:13:01;4.63;;;1.50;;
42098;SDS011;27758;55.900;8.516;2023-06-10T06:15:27;5.35;;;1.67;;
42098;SDS011;27758;55.900;8.516;2023-06-10T06:17:53;3.15;;;1.60;;
42098;SDS011;27758;55.900;8.516;2023-06-10T06:20:19;5.47;;;1.90;;
42098;SDS011;27758;55.900;8.516;2023-06-10T06:22:45;4.30;;;1.80;;
42098;SDS011;27758;55.900;8.516;2023-06-10T06:25:11;4.35;;;1.60;;
42098;SDS011;27758;55.900;8.516;2023-06-10T06:27:37;2.28;;;1.50;;
42098;SDS011;27758;55.900;8.516;2023-06-10T06:30:02;6.85;;;1.90;;
42098;SDS011;27758;55.900;8.516;2023-06-10T06:32:29;6.50;;;2.13;;
42098;SDS011;27758;55.900;8.516;2023-06-10T06:34:54;2.92;;;1.50;;
42098;SDS011;27758;55.900;8.516;2023-06-10T06:37:23;7.00;;;1.60;;
42098;SDS011;27758;55.900;8.516;2023-06-10T06:39:50;6.35;;;1.63;;
42098;SDS011;27758;55.900;8.516;2023-06-10T06:42:17;4.03;;;1.60;;
42098;SDS011;27758;55.900;8.516;2023-06-10T06:44:42;3.78;;;1.60;;
42098;SDS011;27758;55.900;8.516;2023-06-10T06:47:08;4.13;;;1.60;;
42098;SDS011;27758;55.900;8.516;2023-06-10T06:49:34;3.67;;;1.50;;
42098;SDS011;27758;55.900;8.516;2023-06-10T06:52:00;4.57;;;1.48;;
42098;SDS011;27758;55.900;8.516;2023-06-10T06:54:27;5.93;;;1.60;;
42098;SDS011;27758;55.900;8.516;2023-06-10T06:56:52;3.28;;;1.50;;
42098;SDS011;27758;55.900;8.516;2023-06-10T06:59:19;5.22;;;1.73;;
42098;SDS011;27758;55.900;8.516;2023-06-10T07:01:46;4.78;;;1.45;;
42098;SDS011;27758;55.900;8.516;2023-06-10T07:04:14;5.78;;;1.27;;
42098;SDS011;27758;55.900;8.516;2023-06-10T07:06:40;2.30;;;1.45;;
42098;SDS011;27758;55.900;8.516;2023-06-10T07:09:07;3.70;;;1.38;;
42098;SDS011;27758;55.900;8.516;2023-06-10T07:11:34;4.63;;;1.40;;
42098;SDS011;27758;55.900;8.516;2023-06-10T07:14:00;2.50;;;1.60;;
42098;SDS011;27758;55.900;8.516;2023-06-10T07:16:25;3.25;;;1.13;;
42098;SDS011;27758;55.900;8.516;2023-06-10T07:18:52;4.70;;;1.42;;
42098;SDS011;27758;55.900;8.516;2023-06-10T07:21:18;3.38;;;1.30;;
42098;SDS011;27758;55.900;8.516;2023-06-10T07:23:43;2.80;;;1.10;;
42098;SDS011;27758;55.900;8.516;2023-06-10T07:26:10;4.28;;;1.50;;
42098;SDS011;27758;55.900;8.516;2023-06-10T07:28:38;2.78;;;1.10;;
42098;SDS011;27758;55.900;8.516;2023-06-10T07:31:05;3.35;;;1.45;;
42098;SDS011;27758;55.900;8.516;2023-06-10T07:33:34;2.53;;;1.27;;
42098;SDS011;27758;55.900;8.516;2023-06-10T07:36:01;3.13;;;1.85;;
42098;SDS011;27758;55.900;8.516;2023-06-10T07:38:36;3.60;;;1.30;;
42098;SDS011;27758;55.900;8.516;2023-06-10T07:41:02;2.58;;;1.65;;
42098;SDS011;27758;55.900;8.516;2023-06-10T07:43:28;4.45;;;1.50;;
42098;SDS011;27758;55.900;8.516;2023-06-10T07:45:54;5.75;;;1.65;;
42098;SDS011;27758;55.900;8.516;2023-06-10T07:48:20;3.55;;;1.40;;
42098;SDS011;27758;55.900;8.516;2023-06-10T07:50:45;2.13;;;1.20;;
42098;SDS011;27758;55.900;8.516;2023-06-10T07:53:11;2.75;;;1.20;;
42098;SDS011;27758;55.900;8.516;2023-06-10T07:55:37;1.98;;;1.38;;
42098;SDS011;27758;55.900;8.516;2023-06-10T07:58:02;3.67;;;1.52;;
42098;SDS011;27758;55.900;8.516;2023-06-10T08:00:28;3.80;;;1.20;;
42098;SDS011;27758;55.900;8.516;2023-06-10T08:02:54;4.05;;;1.35;;
42098;SDS011;27758;55.900;8.516;2023-06-10T08:05:20;2.45;;;1.23;;
42098;SDS011;27758;55.900;8.516;2023-06-10T08:07:46;4.40;;;1.40;;
42098;SDS011;27758;55.900;8.516;2023-06-10T08:10:12;2.20;;;1.40;;
42098;SDS011;27758;55.900;8.516;2023-06-10T08:12:38;2.55;;;1.42;;
42098;SDS011;27758;55.900;8.516;2023-06-10T08:15:03;5.32;;;1.90;;
42098;SDS011;27758;55.900;8.516;2023-06-10T08:17:32;1.63;;;1.08;;
42098;SDS011;27758;55.900;8.516;2023-06-10T08:19:58;8.38;;;1.60;;
42098;SDS011;27758;55.900;8.516;2023-06-10T08:22:23;3.28;;;1.55;;
42098;SDS011;27758;55.900;8.516;2023-06-10T08:24:49;3.28;;;1.30;;
42098;SDS011;27758;55.900;8.516;2023-06-10T08:27:15;5.93;;;1.58;;
42098;SDS011;27758;55.900;8.516;2023-06-10T08:29:42;2.85;;;1.80;;
42098;SDS011;27758;55.900;8.516;2023-06-10T08:32:07;3.08;;;1.33;;
42098;SDS011;27758;55.900;8.516;2023-06-10T08:34:39;6.40;;;2.20;;
42098;SDS011;27758;55.900;8.516;2023-06-10T08:37:04;4.20;;;1.48;;
42098;SDS011;27758;55.900;8.516;2023-06-10T08:39:30;3.20;;;1.45;;
42098;SDS011;27758;55.900;8.516;2023-06-10T08:42:17;3.53;;;1.50;;
42098;SDS011;27758;55.900;8.516;2023-06-10T08:44:48;2.75;;;1.48;;
42098;SDS011;27758;55.900;8.516;2023-06-10T08:47:24;5.97;;;1.73;;
42098;SDS011;27758;55.900;8.516;2023-06-10T08:49:50;2.25;;;1.20;;
42098;SDS011;27758;55.900;8.516;2023-06-10T08:52:21;2.28;;;1.50;;
42098;SDS011;27758;55.900;8.516;2023-06-10T08:54:54;2.65;;;1.48;;
42098;SDS011;27758;55.900;8.516;2023-06-10T08:57:24;4.20;;;1.60;;
42098;SDS011;27758;55.900;8.516;2023-06-10T08:59:52;4.05;;;1.70;;
42098;SDS011;27758;55.900;8.516;2023-06-10T09:02:31;2.35;;;1.30;;
42098;SDS011;27758;55.900;8.516;2023-06-10T09:05:00;3.10;;;1.80;;
42098;SDS011;27758;55.900;8.516;2023-06-10T09:07:27;6.18;;;1.80;;
42098;SDS011;27758;55.900;8.516;2023-06-10T09:12:22;3.67;;;1.70;;
42098;SDS011;27758;55.900;8.516;2023-06-10T09:14:48;3.67;;;2.00;;
42098;SDS011;27758;55.900;8.516;2023-06-10T09:17:14;1.88;;;1.58;;
42098;SDS011;27758;55.900;8.516;2023-06-10T09:19:41;3.35;;;1.80;;
42098;SDS011;27758;55.900;8.516;2023-06-10T09:22:09;2.60;;;1.90;;
42098;SDS011;27758;55.900;8.516;2023-06-10T09:24:34;5.38;;;1.90;;
42098;SDS011;27758;55.900;8.516;2023-06-10T09:27:04;4.50;;;2.08;;
42098;SDS011;27758;55.900;8.516;2023-06-10T09:32:17;5.82;;;1.75;;
42098;SDS011;27758;55.900;8.516;2023-06-10T09:34:44;4.15;;;1.98;;
42098;SDS011;27758;55.900;8.516;2023-06-10T09:37:10;5.78;;;1.77;;
42098;SDS011;27758;55.900;8.516;2023-06-10T09:39:39;3.58;;;2.40;;
42098;SDS011;27758;55.900;8.516;2023-06-10T09:42:18;4.03;;;1.77;;
42098;SDS011;27758;55.900;8.516;2023-06-10T09:44:50;4.70;;;2.05;;
42098;SDS011;27758;55.900;8.516;2023-06-10T09:47:20;3.38;;;1.90;;
42098;SDS011;27758;55.900;8.516;2023-06-10T09:49:50;3.22;;;1.85;;
42098;SDS011;27758;55.900;8.516;2023-06-10T09:52:22;9.38;;;1.67;;
42098;SDS011;27758;55.900;8.516;2023-06-10T09:54:50;10.25;;;2.60;;
42098;SDS011;27758;55.900;8.516;2023-06-10T09:57:17;3.80;;;2.15;;
42098;SDS011;27758;55.900;8.516;2023-06-10T09:59:44;4.10;;;2.15;;
42098;SDS011;27758;55.900;8.516;2023-06-10T10:02:14;4.32;;;2.00;;
42098;SDS011;27758;55.900;8.516;2023-06-10T10:04:41;6.13;;;2.15;;
42098;SDS011;27758;55.900;8.516;2023-06-10T10:07:07;4.97;;;2.00;;
42098;SDS011;27758;55.900;8.516;2023-06-10T10:09:35;6.35;;;2.33;;
42098;SDS011;27758;55.900;8.516;2023-06-10T10:14:37;4.72;;;2.30;;
42098;SDS011;27758;55.900;8.516;2023-06-10T10:17:04;6.32;;;2.35;;
42098;SDS011;27758;55.900;8.516;2023-06-10T10:19:35;4.07;;;2.22;;
42098;SDS011;27758;55.900;8.516;2023-06-10T10:22:10;5.75;;;2.10;;
42098;SDS011;27758;55.900;8.516;2023-06-10T10:24:46;4.40;;;2.17;;
42098;SDS011;27758;55.900;8.516;2023-06-10T10:27:26;2.88;;;2.05;;
42098;SDS011;27758;55.900;8.516;2023-06-10T10:30:00;6.47;;;2.17;;
42098;SDS011;27758;55.900;8.516;2023-06-10T10:35:32;4.70;;;2.15;;
42098;SDS011;27758;55.900;8.516;2023-06-10T10:38:01;3.70;;;1.83;;
42098;SDS011;27758;55.900;8.516;2023-06-10T10:40:28;5.97;;;2.28;;
42098;SDS011;27758;55.900;8.516;2023-06-10T10:42:55;5.80;;;2.20;;
42098;SDS011;27758;55.900;8.516;2023-06-10T10:45:23;6.60;;;2.22;;
42098;SDS011;27758;55.900;8.516;2023-06-10T10:47:52;5.57;;;2.20;;
42098;SDS011;27758;55.900;8.516;2023-06-10T10:50:19;4.63;;;2.28;;
42098;SDS011;27758;55.900;8.516;2023-06-10T10:52:48;5.78;;;2.33;;
42098;SDS011;27758;55.900;8.516;2023-06-10T10:55:18;5.38;;;2.10;;
42098;SDS011;27758;55.900;8.516;2023-06-10T10:57:44;5.32;;;2.50;;
42098;SDS011;27758;55.900;8.516;2023-06-10T11:00:31;4.00;;;2.00;;
42098;SDS011;27758;55.900;8.516;2023-06-10T11:03:12;5.90;;;2.33;;
42098;SDS011;27758;55.900;8.516;2023-06-10T11:10:57;6.55;;;2.22;;
42098;SDS011;27758;55.900;8.516;2023-06-10T11:13:23;9.63;;;2.60;;
42098;SDS011;27758;55.900;8.516;2023-06-10T11:15:52;3.70;;;2.65;;
42098;SDS011;27758;55.900;8.516;2023-06-10T11:21:13;5.05;;;2.92;;
42098;SDS011;27758;55.900;8.516;2023-06-10T11:23:42;4.38;;;2.33;;
42098;SDS011;27758;55.900;8.516;2023-06-10T11:31:22;6.18;;;2.38;;
42098;SDS011;27758;55.900;8.516;2023-06-10T11:33:59;3.47;;;2.13;;
42098;SDS011;27758;55.900;8.516;2023-06-10T11:36:30;3.90;;;1.83;;
42098;SDS011;27758;55.900;8.516;2023-06-10T11:38:57;2.70;;;2.33;;
42098;SDS011;27758;55.900;8.516;2023-06-10T11:41:33;5.10;;;2.03;;
42098;SDS011;27758;55.900;8.516;2023-06-10T11:44:10;4.30;;;2.15;;
42098;SDS011;27758;55.900;8.516;2023-06-10T11:46:36;9.98;;;2.15;;
42098;SDS011;27758;55.900;8.516;2023-06-10T11:49:03;4.25;;;2.28;;
42098;SDS011;27758;55.900;8.516;2023-06-10T11:51:34;6.97;;;2.58;;
42098;SDS011;27758;55.900;8.516;2023-06-10T11:54:05;5.63;;;2.63;;
42098;SDS011;27758;55.900;8.516;2023-06-10T11:56:31;4.80;;;2.30;;
42098;SDS011;27758;55.900;8.516;2023-06-10T11:59:01;5.90;;;2.55;;
42098;SDS011;27758;55.900;8.516;2023-06-10T12:01:35;3.13;;;2.13;;
42098;SDS011;27758;55.900;8.516;2023-06-10T12:04:09;7.68;;;2.15;;
42098;SDS011;27758;55.900;8.516;2023-06-10T12:06:39;5.20;;;2.42;;
42098;SDS011;27758;55.900;8.516;2023-06-10T12:09:13;5.55;;;2.25;;
42098;SDS011;27758;55.900;8.516;2023-06-10T12:11:39;3.78;;;1.92;;
42098;SDS011;27758;55.900;8.516;2023-06-10T12:14:05;9.10;;;2.53;;
42098;SDS011;27758;55.900;8.516;2023-06-10T12:16:31;8.23;;;2.42;;
42098;SDS011;27758;55.900;8.516;2023-06-10T12:19:03;4.28;;;2.42;;
42098;SDS011;27758;55.900;8.516;2023-06-10T12:21:31;3.63;;;2.35;;
42098;SDS011;27758;55.900;8.516;2023-06-10T12:31:54;4.40;;;2.20;;
42098;SDS011;27758;55.900;8.516;2023-06-10T12:36:57;7.47;;;2.50;;
42098;SDS011;27758;55.900;8.516;2023-06-10T12:39:23;4.30;;;2.20;;
42098;SDS011;27758;55.900;8.516;2023-06-10T12:41:48;6.32;;;2.30;;
42098;SDS011;27758;55.900;8.516;2023-06-10T12:44:16;3.15;;;2.13;;
42098;SDS011;27758;55.900;8.516;2023-06-10T12:46:41;5.03;;;2.05;;
42098;SDS011;27758;55.900;8.516;2023-06-10T12:49:07;4.68;;;2.00;;
42098;SDS011;27758;55.900;8.516;2023-06-10T12:51:33;5.50;;;2.53;;
42098;SDS011;27758;55.900;8.516;2023-06-10T12:54:02;3.58;;;2.20;;
42098;SDS011;27758;55.900;8.516;2023-06-10T12:56:27;5.57;;;2.65;;
42098;SDS011;27758;55.900;8.516;2023-06-10T12:58:53;6.10;;;2.00;;
42098;SDS011;27758;55.900;8.516;2023-06-10T13:01:19;5.63;;;2.20;;
42098;SDS011;27758;55.900;8.516;2023-06-10T13:03:47;6.53;;;2.67;;
42098;SDS011;27758;55.900;8.516;2023-06-10T13:06:13;4.35;;;2.30;;
42098;SDS011;27758;55.900;8.516;2023-06-10T13:08:39;11.73;;;2.35;;
42098;SDS011;27758;55.900;8.516;2023-06-10T13:11:04;5.28;;;2.00;;
42098;SDS011;27758;55.900;8.516;2023-06-10T13:13:30;7.45;;;2.13;;
42098;SDS011;27758;55.900;8.516;2023-06-10T13:15:56;3.50;;;2.15;;
42098;SDS011;27758;55.900;8.516;2023-06-10T13:18:22;4.25;;;2.28;;
42098;SDS011;27758;55.900;8.516;2023-06-10T13:20:47;5.25;;;2.83;;
42098;SDS011;27758;55.900;8.516;2023-06-10T13:23:13;4.55;;;2.35;;
42098;SDS011;27758;55.900;8.516;2023-06-10T13:25:39;6.38;;;2.55;;
42098;SDS011;27758;55.900;8.516;2023-06-10T13:28:05;6.03;;;2.38;;
42098;SDS011;27758;55.900;8.516;2023-06-10T13:30:31;5.05;;;2.55;;
42098;SDS011;27758;55.900;8.516;2023-06-10T13:32:57;6.38;;;2.25;;
42098;SDS011;27758;55.900;8.516;2023-06-10T13:35:22;5.72;;;2.50;;
42098;SDS011;27758;55.900;8.516;2023-06-10T13:37:48;7.15;;;2.20;;
42098;SDS011;27758;55.900;8.516;2023-06-10T13:40:14;4.18;;;2.25;;
42098;SDS011;27758;55.900;8.516;2023-06-10T13:42:40;5.38;;;2.97;;
42098;SDS011;27758;55.900;8.516;2023-06-10T13:45:06;7.63;;;3.08;;
42098;SDS011;27758;55.900;8.516;2023-06-10T13:47:37;4.40;;;2.30;;
42098;SDS011;27758;55.900;8.516;2023-06-10T13:50:03;5.70;;;2.40;;
42098;SDS011;27758;55.900;8.516;2023-06-10T13:52:29;3.42;;;2.17;;
42098;SDS011;27758;55.900;8.516;2023-06-10T13:54:55;5.10;;;2.08;;
42098;SDS011;27758;55.900;8.516;2023-06-10T13:57:21;5.68;;;2.50;;
42098;SDS011;27758;55.900;8.516;2023-06-10T13:59:46;8.35;;;2.28;;
42098;SDS011;27758;55.900;8.516;2023-06-10T14:02:13;5.25;;;2.40;;
42098;SDS011;27758;55.900;8.516;2023-06-10T14:04:39;4.00;;;2.00;;
42098;SDS011;27758;55.900;8.516;2023-06-10T14:07:05;5.53;;;2.13;;
42098;SDS011;27758;55.900;8.516;2023-06-10T14:09:31;6.15;;;2.33;;
42098;SDS011;27758;55.900;8.516;2023-06-10T14:11:57;5.97;;;2.88;;
42098;SDS011;27758;55.900;8.516;2023-06-10T14:14:23;5.40;;;2.15;;
42098;SDS011;27758;55.900;8.516;2023-06-10T14:16:51;7.43;;;2.67;;
42098;SDS011;27758;55.900;8.516;2023-06-10T14:19:17;8.25;;;2.30;;
42098;SDS011;27758;55.900;8.516;2023-06-10T14:21:43;3.08;;;1.98;;
42098;SDS011;27758;55.900;8.516;2023-06-10T14:24:08;2.70;;;1.83;;
42098;SDS011;27758;55.900;8.516;2023-06-10T14:26:34;2.92;;;1.98;;
42098;SDS011;27758;55.900;8.516;2023-06-10T14:29:00;8.23;;;2.05;;
42098;SDS011;27758;55.900;8.516;2023-06-10T14:31:27;6.00;;;2.63;;
42098;SDS011;27758;55.900;8.516;2023-06-10T14:33:53;6.13;;;2.40;;
42098;SDS011;27758;55.900;8.516;2023-06-10T14:36:18;5.13;;;2.55;;
42098;SDS011;27758;55.900;8.516;2023-06-10T14:38:44;4.93;;;2.08;;
42098;SDS011;27758;55.900;8.516;2023-06-10T14:41:11;7.68;;;2.22;;
42098;SDS011;27758;55.900;8.516;2023-06-10T14:43:37;3.13;;;2.05;;
42098;SDS011;27758;55.900;8.516;2023-06-10T14:46:02;5.15;;;1.85;;
42098;SDS011;27758;55.900;8.516;2023-06-10T14:48:28;6.88;;;2.10;;
42098;SDS011;27758;55.900;8.516;2023-06-10T14:50:54;6.53;;;1.90;;
42098;SDS011;27758;55.900;8.516;2023-06-10T14:53:20;7.68;;;2.20;;
42098;SDS011;27758;55.900;8.516;2023-06-10T14:55:46;5.82;;;2.13;;
42098;SDS011;27758;55.900;8.516;2023-06-10T14:58:11;5.88;;;1.70;;
42098;SDS011;27758;55.900;8.516;2023-06-10T15:00:37;7.63;;;1.95;;
42098;SDS011;27758;55.900;8.516;2023-06-10T15:03:03;3.33;;;1.58;;
42098;SDS011;27758;55.900;8.516;2023-06-10T15:05:29;4.03;;;1.83;;
42098;SDS011;27758;55.900;8.516;2023-06-10T15:07:54;4.97;;;2.15;;
42098;SDS011;27758;55.900;8.516;2023-06-10T15:10:23;5.05;;;2.20;;
42098;SDS011;27758;55.900;8.516;2023-06-10T15:12:49;4.53;;;2.17;;
42098;SDS011;27758;55.900;8.516;2023-06-10T15:15:23;8.30;;;2.15;;
42098;SDS011;27758;55.900;8.516;2023-06-10T15:17:50;8.70;;;1.98;;
42098;SDS011;27758;55.900;8.516;2023-06-10T15:20:16;4.60;;;1.98;;
42098;SDS011;27758;55.900;8.516;2023-06-10T15:22:42;3.03;;;1.73;;
42098;SDS011;27758;55.900;8.516;2023-06-10T15:25:08;4.20;;;1.95;;
42098;SDS011;27758;55.900;8.516;2023-06-10T15:27:33;6.82;;;1.60;;
42098;SDS011;27758;55.900;8.516;2023-06-10T15:29:59;5.30;;;2.25;;